sensor_id;sensor_type;location;lat;lon;timestamp;temperature;humidity
67893;DHT22;54688;52.376;16.744;2023-12-22T00:02:46;4.3;70.5
67893;DHT22;54688;52.376;16.744;2023-12-22T00:05:49;4.2;71.9
67893;DHT22;54688;52.376;16.744;2023-12-22T00:08:51;4.2;72.3
67893;DHT22;54688;52.376;16.744;2023-12-22T00:11:53;4.1;71
67893;DHT22;54688;52.376;16.744;2023-12-22T00:14:56;4.1;72.3
67893;DHT22;54688;52.376;16.744;2023-12-22T00:17:58;3.9;73.1
67893;DHT22;54688;52.376;16.744;2023-12-22T00:21:00;3.8;72.2
67893;DHT22;54688;52.376;16.744;2023-12-22T00:24:02;3.8;72.6
67893;DHT22;54688;52.376;16.744;2023-12-22T00:27:05;3.8;72
67893;DHT22;54688;52.376;16.744;2023-12-22T00:30:07;3.8;71.7
67893;DHT22;54688;52.376;16.744;2023-12-22T00:33:10;3.8;70.7
67893;DHT22;54688;52.376;16.744;2023-12-22T00:36:12;3.8;70.6
67893;DHT22;54688;52.376;16.744;2023-12-22T00:39:14;3.9;69.7
67893;DHT22;54688;52.376;16.744;2023-12-22T00:42:16;3.9;67.9
67893;DHT22;54688;52.376;16.744;2023-12-22T00:45:18;3.9;67.4
67893;DHT22;54688;52.376;16.744;2023-12-22T00:48:20;4;66.6
67893;DHT22;54688;52.376;16.744;2023-12-22T00:51:21;4.1;66.3
67893;DHT22;54688;52.376;16.744;2023-12-22T00:54:23;4;67.1
67893;DHT22;54688;52.376;16.744;2023-12-22T00:57:25;4.1;66.4
67893;DHT22;54688;52.376;16.744;2023-12-22T01:00:27;4.1;66.1
67893;DHT22;54688;52.376;16.744;2023-12-22T01:03:29;4.2;65.9
67893;DHT22;54688;52.376;16.744;2023-12-22T01:06:32;4.2;65.4
67893;DHT22;54688;52.376;16.744;2023-12-22T01:09:39;4.2;65.2
67893;DHT22;54688;52.376;16.744;2023-12-22T01:12:41;4.2;65.8
67893;DHT22;54688;52.376;16.744;2023-12-22T01:15:44;4.2;66.8
67893;DHT22;54688;52.376;16.744;2023-12-22T01:18:45;4.1;66.5
67893;DHT22;54688;52.376;16.744;2023-12-22T01:21:47;4.1;67.5
67893;DHT22;54688;52.376;16.744;2023-12-22T01:24:49;4;68.5
67893;DHT22;54688;52.376;16.744;2023-12-22T01:27:51;4;68.1
67893;DHT22;54688;52.376;16.744;2023-12-22T01:30:54;3.9;68.7
67893;DHT22;54688;52.376;16.744;2023-12-22T01:33:56;3.9;68.7
67893;DHT22;54688;52.376;16.744;2023-12-22T01:36:59;3.9;69
67893;DHT22;54688;52.376;16.744;2023-12-22T01:40:00;3.9;69.4
67893;DHT22;54688;52.376;16.744;2023-12-22T01:43:03;3.8;69.6
67893;DHT22;54688;52.376;16.744;2023-12-22T01:46:05;3.8;70.4
67893;DHT22;54688;52.376;16.744;2023-12-22T01:49:08;3.7;69.3
67893;DHT22;54688;52.376;16.744;2023-12-22T01:52:11;3.7;69.4
67893;DHT22;54688;52.376;16.744;2023-12-22T01:55:13;3.7;69.8
67893;DHT22;54688;52.376;16.744;2023-12-22T01:58:18;3.7;69.9
67893;DHT22;54688;52.376;16.744;2023-12-22T02:01:21;3.7;69.7
67893;DHT22;54688;52.376;16.744;2023-12-22T02:04:25;3.7;69.7
67893;DHT22;54688;52.376;16.744;2023-12-22T02:07:28;3.8;69.7
67893;DHT22;54688;52.376;16.744;2023-12-22T02:10:30;3.8;68.4
67893;DHT22;54688;52.376;16.744;2023-12-22T02:13:33;3.8;68.8
67893;DHT22;54688;52.376;16.744;2023-12-22T02:16:38;3.8;68.6
67893;DHT22;54688;52.376;16.744;2023-12-22T02:19:45;3.8;68.1
67893;DHT22;54688;52.376;16.744;2023-12-22T02:22:50;3.8;66.9
67893;DHT22;54688;52.376;16.744;2023-12-22T02:25:55;3.8;66.2
67893;DHT22;54688;52.376;16.744;2023-12-22T02:29:04;3.9;67.2
67893;DHT22;54688;52.376;16.744;2023-12-22T02:32:09;3.9;66.2
67893;DHT22;54688;52.376;16.744;2023-12-22T02:35:17;3.9;65.4
67893;DHT22;54688;52.376;16.744;2023-12-22T02:38:21;3.9;64.9
67893;DHT22;54688;52.376;16.744;2023-12-22T02:41:24;3.9;62
67893;DHT22;54688;52.376;16.744;2023-12-22T02:44:26;4;62.4
67893;DHT22;54688;52.376;16.744;2023-12-22T02:47:29;4;62.5
67893;DHT22;54688;52.376;16.744;2023-12-22T02:50:30;4;61.7
67893;DHT22;54688;52.376;16.744;2023-12-22T02:53:34;4;61.7
67893;DHT22;54688;52.376;16.744;2023-12-22T02:56:36;4;61.3
67893;DHT22;54688;52.376;16.744;2023-12-22T02:59:38;4;62.2
67893;DHT22;54688;52.376;16.744;2023-12-22T03:02:41;4;61.5
67893;DHT22;54688;52.376;16.744;2023-12-22T03:05:43;3.9;61.2
67893;DHT22;54688;52.376;16.744;2023-12-22T03:08:45;4;60.7
67893;DHT22;54688;52.376;16.744;2023-12-22T03:11:47;3.9;60
67893;DHT22;54688;52.376;16.744;2023-12-22T03:14:49;4;59.7
67893;DHT22;54688;52.376;16.744;2023-12-22T03:20:50;3.9;59.3
67893;DHT22;54688;52.376;16.744;2023-12-22T03:23:53;3.9;58.9
67893;DHT22;54688;52.376;16.744;2023-12-22T03:26:55;3.8;58.2
67893;DHT22;54688;52.376;16.744;2023-12-22T03:29:57;3.8;58.7
67893;DHT22;54688;52.376;16.744;2023-12-22T03:32:59;3.8;58.9
67893;DHT22;54688;52.376;16.744;2023-12-22T03:36:01;3.7;58.5
67893;DHT22;54688;52.376;16.744;2023-12-22T03:39:04;3.7;58
67893;DHT22;54688;52.376;16.744;2023-12-22T03:42:06;3.7;58.5
67893;DHT22;54688;52.376;16.744;2023-12-22T03:45:09;3.7;57.5
67893;DHT22;54688;52.376;16.744;2023-12-22T03:48:12;3.7;57.7
67893;DHT22;54688;52.376;16.744;2023-12-22T03:51:14;3.7;57.6
67893;DHT22;54688;52.376;16.744;2023-12-22T03:54:16;3.7;59.4
67893;DHT22;54688;52.376;16.744;2023-12-22T03:57:18;3.7;60.1
67893;DHT22;54688;52.376;16.744;2023-12-22T04:00:21;3.7;60.4
67893;DHT22;54688;52.376;16.744;2023-12-22T04:03:23;3.7;61.5
67893;DHT22;54688;52.376;16.744;2023-12-22T04:06:25;3.6;61.2
67893;DHT22;54688;52.376;16.744;2023-12-22T04:09:27;3.6;60.3
67893;DHT22;54688;52.376;16.744;2023-12-22T04:12:30;3.6;59.9
67893;DHT22;54688;52.376;16.744;2023-12-22T04:15:32;3.6;59.2
67893;DHT22;54688;52.376;16.744;2023-12-22T04:18:34;3.6;58.5
67893;DHT22;54688;52.376;16.744;2023-12-22T04:21:36;3.6;57.9
67893;DHT22;54688;52.376;16.744;2023-12-22T04:24:38;3.6;57.9
67893;DHT22;54688;52.376;16.744;2023-12-22T04:27:40;3.6;58.6
67893;DHT22;54688;52.376;16.744;2023-12-22T04:30:42;3.5;56.8
67893;DHT22;54688;52.376;16.744;2023-12-22T04:33:44;3.4;55.3
67893;DHT22;54688;52.376;16.744;2023-12-22T04:36:46;3.4;54.2
67893;DHT22;54688;52.376;16.744;2023-12-22T04:39:48;3.3;55.5
67893;DHT22;54688;52.376;16.744;2023-12-22T04:42:51;3.3;58
67893;DHT22;54688;52.376;16.744;2023-12-22T04:45:53;3.3;60.5
67893;DHT22;54688;52.376;16.744;2023-12-22T04:48:55;3.2;61.3
67893;DHT22;54688;52.376;16.744;2023-12-22T04:51:58;3.2;63
67893;DHT22;54688;52.376;16.744;2023-12-22T04:55:01;3.1;63.2
67893;DHT22;54688;52.376;16.744;2023-12-22T04:58:03;3;64.1
67893;DHT22;54688;52.376;16.744;2023-12-22T05:01:05;3;64.7
67893;DHT22;54688;52.376;16.744;2023-12-22T05:04:08;3;65.4
67893;DHT22;54688;52.376;16.744;2023-12-22T05:07:10;3;65.1
67893;DHT22;54688;52.376;16.744;2023-12-22T05:10:12;3;65.1
67893;DHT22;54688;52.376;16.744;2023-12-22T05:13:14;3;65.5
67893;DHT22;54688;52.376;16.744;2023-12-22T05:16:17;2.9;65.7
67893;DHT22;54688;52.376;16.744;2023-12-22T05:19:19;2.9;65.8
67893;DHT22;54688;52.376;16.744;2023-12-22T05:22:21;2.8;65.7
67893;DHT22;54688;52.376;16.744;2023-12-22T05:25:23;2.8;65.5
67893;DHT22;54688;52.376;16.744;2023-12-22T05:28:25;2.7;65.6
67893;DHT22;54688;52.376;16.744;2023-12-22T05:31:27;2.7;65.9
67893;DHT22;54688;52.376;16.744;2023-12-22T05:34:29;2.7;66.3
67893;DHT22;54688;52.376;16.744;2023-12-22T05:37:31;2.7;66.5
67893;DHT22;54688;52.376;16.744;2023-12-22T05:40:33;2.6;65.9
67893;DHT22;54688;52.376;16.744;2023-12-22T05:43:35;2.7;66.4
67893;DHT22;54688;52.376;16.744;2023-12-22T05:46:37;2.6;67.6
67893;DHT22;54688;52.376;16.744;2023-12-22T05:49:39;2.6;66.3
67893;DHT22;54688;52.376;16.744;2023-12-22T05:52:41;2.6;66.9
67893;DHT22;54688;52.376;16.744;2023-12-22T05:55:44;2.6;65.9
67893;DHT22;54688;52.376;16.744;2023-12-22T05:58:45;2.6;64.8
67893;DHT22;54688;52.376;16.744;2023-12-22T06:01:47;2.7;65
67893;DHT22;54688;52.376;16.744;2023-12-22T06:04:50;2.6;64.7
67893;DHT22;54688;52.376;16.744;2023-12-22T06:07:52;2.6;65
67893;DHT22;54688;52.376;16.744;2023-12-22T06:10:54;2.6;65.3
67893;DHT22;54688;52.376;16.744;2023-12-22T06:13:56;2.6;65
67893;DHT22;54688;52.376;16.744;2023-12-22T06:16:58;2.6;65.6
67893;DHT22;54688;52.376;16.744;2023-12-22T06:20:00;2.6;65.5
67893;DHT22;54688;52.376;16.744;2023-12-22T06:23:02;2.6;65.3
67893;DHT22;54688;52.376;16.744;2023-12-22T06:26:07;2.6;65.4
67893;DHT22;54688;52.376;16.744;2023-12-22T06:29:10;2.6;65.4
67893;DHT22;54688;52.376;16.744;2023-12-22T06:32:12;2.6;66.1
67893;DHT22;54688;52.376;16.744;2023-12-22T06:35:14;2.7;66.3
67893;DHT22;54688;52.376;16.744;2023-12-22T06:38:16;2.7;66
67893;DHT22;54688;52.376;16.744;2023-12-22T06:41:19;2.8;66.2
67893;DHT22;54688;52.376;16.744;2023-12-22T06:44:21;2.8;66.5
67893;DHT22;54688;52.376;16.744;2023-12-22T06:47:24;2.8;66.6
67893;DHT22;54688;52.376;16.744;2023-12-22T06:50:26;2.8;66.6
67893;DHT22;54688;52.376;16.744;2023-12-22T06:53:28;2.9;65.9
67893;DHT22;54688;52.376;16.744;2023-12-22T06:56:31;2.9;66.1
67893;DHT22;54688;52.376;16.744;2023-12-22T06:59:37;3;66
67893;DHT22;54688;52.376;16.744;2023-12-22T07:02:40;3;65.5
67893;DHT22;54688;52.376;16.744;2023-12-22T07:05:43;3.1;65.5
67893;DHT22;54688;52.376;16.744;2023-12-22T07:09:32;3.1;65.9
67893;DHT22;54688;52.376;16.744;2023-12-22T07:12:34;3.1;66.1
67893;DHT22;54688;52.376;16.744;2023-12-22T07:15:36;3.1;67.1
67893;DHT22;54688;52.376;16.744;2023-12-22T07:18:38;3.1;67.3
67893;DHT22;54688;52.376;16.744;2023-12-22T07:21:40;3.1;68.4
67893;DHT22;54688;52.376;16.744;2023-12-22T07:24:43;3.1;68.1
67893;DHT22;54688;52.376;16.744;2023-12-22T07:27:45;3.1;66.9
67893;DHT22;54688;52.376;16.744;2023-12-22T07:30:47;3.1;66.8
67893;DHT22;54688;52.376;16.744;2023-12-22T07:33:49;3.1;67.2
67893;DHT22;54688;52.376;16.744;2023-12-22T07:36:52;3.1;67
67893;DHT22;54688;52.376;16.744;2023-12-22T07:39:55;3.1;66.5
67893;DHT22;54688;52.376;16.744;2023-12-22T07:42:57;3;65.5
67893;DHT22;54688;52.376;16.744;2023-12-22T07:46:00;3;64.6
67893;DHT22;54688;52.376;16.744;2023-12-22T07:49:02;3;63.5
67893;DHT22;54688;52.376;16.744;2023-12-22T07:52:05;3.1;62.6
67893;DHT22;54688;52.376;16.744;2023-12-22T07:55:07;3;60.8
67893;DHT22;54688;52.376;16.744;2023-12-22T07:58:10;2.9;65.4
67893;DHT22;54688;52.376;16.744;2023-12-22T08:01:12;2.7;69.1
67893;DHT22;54688;52.376;16.744;2023-12-22T08:04:14;2.5;69.3
67893;DHT22;54688;52.376;16.744;2023-12-22T08:07:16;2.3;69.7
67893;DHT22;54688;52.376;16.744;2023-12-22T08:10:18;2.3;69.3
67893;DHT22;54688;52.376;16.744;2023-12-22T08:13:20;2.3;68.1
67893;DHT22;54688;52.376;16.744;2023-12-22T08:16:22;2.4;66.3
67893;DHT22;54688;52.376;16.744;2023-12-22T08:19:25;2.5;66.8
67893;DHT22;54688;52.376;16.744;2023-12-22T08:22:27;2.5;69.5
67893;DHT22;54688;52.376;16.744;2023-12-22T08:25:29;2.4;72.1
67893;DHT22;54688;52.376;16.744;2023-12-22T08:28:31;2.3;72.2
67893;DHT22;54688;52.376;16.744;2023-12-22T08:31:33;2.3;71.1
67893;DHT22;54688;52.376;16.744;2023-12-22T08:34:36;2.3;69.7
67893;DHT22;54688;52.376;16.744;2023-12-22T08:37:38;2.4;68.4
67893;DHT22;54688;52.376;16.744;2023-12-22T08:40:39;2.5;67.1
67893;DHT22;54688;52.376;16.744;2023-12-22T08:43:41;2.6;66.1
67893;DHT22;54688;52.376;16.744;2023-12-22T08:46:43;2.7;65.3
67893;DHT22;54688;52.376;16.744;2023-12-22T08:49:45;2.7;64.5
67893;DHT22;54688;52.376;16.744;2023-12-22T08:52:47;2.8;65.4
67893;DHT22;54688;52.376;16.744;2023-12-22T08:55:49;2.7;66.5
67893;DHT22;54688;52.376;16.744;2023-12-22T08:58:52;2.8;67.4
67893;DHT22;54688;52.376;16.744;2023-12-22T09:01:55;2.7;69.4
67893;DHT22;54688;52.376;16.744;2023-12-22T09:04:57;2.7;70.3
67893;DHT22;54688;52.376;16.744;2023-12-22T09:07:59;2.7;70.4
67893;DHT22;54688;52.376;16.744;2023-12-22T09:11:01;2.6;70.3
67893;DHT22;54688;52.376;16.744;2023-12-22T09:14:04;2.6;70.6
67893;DHT22;54688;52.376;16.744;2023-12-22T09:17:06;2.7;70.4
67893;DHT22;54688;52.376;16.744;2023-12-22T09:20:09;2.6;69.5
67893;DHT22;54688;52.376;16.744;2023-12-22T09:23:12;2.7;68.7
67893;DHT22;54688;52.376;16.744;2023-12-22T09:26:14;2.7;68.6
67893;DHT22;54688;52.376;16.744;2023-12-22T09:29:17;2.8;67.7
67893;DHT22;54688;52.376;16.744;2023-12-22T09:35:17;2.9;66.9
67893;DHT22;54688;52.376;16.744;2023-12-22T09:38:19;2.9;67.1
67893;DHT22;54688;52.376;16.744;2023-12-22T09:41:21;3;67.1
67893;DHT22;54688;52.376;16.744;2023-12-22T09:44:23;3;66.9
67893;DHT22;54688;52.376;16.744;2023-12-22T09:47:27;3;67.6
67893;DHT22;54688;52.376;16.744;2023-12-22T09:50:32;3;67.5
67893;DHT22;54688;52.376;16.744;2023-12-22T09:53:35;3;66.7
67893;DHT22;54688;52.376;16.744;2023-12-22T09:56:41;3.1;66.8
67893;DHT22;54688;52.376;16.744;2023-12-22T09:59:44;3.1;66.2
67893;DHT22;54688;52.376;16.744;2023-12-22T10:02:47;3.1;65.6
67893;DHT22;54688;52.376;16.744;2023-12-22T10:05:50;3.2;65.9
67893;DHT22;54688;52.376;16.744;2023-12-22T10:08:53;3.2;65
67893;DHT22;54688;52.376;16.744;2023-12-22T10:11:56;3.3;64.7
67893;DHT22;54688;52.376;16.744;2023-12-22T10:14:59;3.3;65.7
67893;DHT22;54688;52.376;16.744;2023-12-22T10:18:03;3.3;64.4
67893;DHT22;54688;52.376;16.744;2023-12-22T10:21:05;3.3;63.5
67893;DHT22;54688;52.376;16.744;2023-12-22T10:24:07;3.4;63.4
67893;DHT22;54688;52.376;16.744;2023-12-22T10:27:41;3.4;63
67893;DHT22;54688;52.376;16.744;2023-12-22T10:30:44;3.4;63
67893;DHT22;54688;52.376;16.744;2023-12-22T10:33:46;3.4;62.3
67893;DHT22;54688;52.376;16.744;2023-12-22T10:36:48;3.4;61.9
67893;DHT22;54688;52.376;16.744;2023-12-22T10:39:52;3.4;61.8
67893;DHT22;54688;52.376;16.744;2023-12-22T10:42:54;3.4;62
67893;DHT22;54688;52.376;16.744;2023-12-22T10:45:56;3.5;61.7
67893;DHT22;54688;52.376;16.744;2023-12-22T10:48:58;3.5;61.4
67893;DHT22;54688;52.376;16.744;2023-12-22T10:55:00;3.5;61.9
67893;DHT22;54688;52.376;16.744;2023-12-22T10:58:03;3.5;61.4
67893;DHT22;54688;52.376;16.744;2023-12-22T11:01:07;3.6;61.3
67893;DHT22;54688;52.376;16.744;2023-12-22T11:04:12;3.6;60.7
67893;DHT22;54688;52.376;16.744;2023-12-22T11:07:18;3.7;60.6
67893;DHT22;54688;52.376;16.744;2023-12-22T11:10:24;3.7;59.8
67893;DHT22;54688;52.376;16.744;2023-12-22T11:13:27;3.7;59.8
67893;DHT22;54688;52.376;16.744;2023-12-22T11:16:30;3.8;60.1
67893;DHT22;54688;52.376;16.744;2023-12-22T11:19:33;3.8;59.5
67893;DHT22;54688;52.376;16.744;2023-12-22T11:22:36;3.8;59.9
67893;DHT22;54688;52.376;16.744;2023-12-22T11:25:40;3.8;59.8
67893;DHT22;54688;52.376;16.744;2023-12-22T11:28:43;3.8;59
67893;DHT22;54688;52.376;16.744;2023-12-22T11:31:47;3.7;59.6
67893;DHT22;54688;52.376;16.744;2023-12-22T11:34:53;3.7;59.2
67893;DHT22;54688;52.376;16.744;2023-12-22T11:40:57;3.7;58.4
67893;DHT22;54688;52.376;16.744;2023-12-22T11:44:02;3.7;59.2
67893;DHT22;54688;52.376;16.744;2023-12-22T11:47:06;3.7;60.4
67893;DHT22;54688;52.376;16.744;2023-12-22T11:50:09;3.7;60.8
67893;DHT22;54688;52.376;16.744;2023-12-22T11:53:17;3.6;63.1
67893;DHT22;54688;52.376;16.744;2023-12-22T11:56:20;3.5;62.1
67893;DHT22;54688;52.376;16.744;2023-12-22T11:59:23;3.5;62.4
67893;DHT22;54688;52.376;16.744;2023-12-22T12:02:25;3.5;61.7
67893;DHT22;54688;52.376;16.744;2023-12-22T12:05:28;3.5;62.3
67893;DHT22;54688;52.376;16.744;2023-12-22T12:08:30;3.5;60.1
67893;DHT22;54688;52.376;16.744;2023-12-22T12:12:37;3.5;61.2
67893;DHT22;54688;52.376;16.744;2023-12-22T12:15:39;3.5;62.2
67893;DHT22;54688;52.376;16.744;2023-12-22T12:18:43;3.5;61.6
67893;DHT22;54688;52.376;16.744;2023-12-22T12:21:46;3.5;61.4
67893;DHT22;54688;52.376;16.744;2023-12-22T12:24:49;3.6;61.6
67893;DHT22;54688;52.376;16.744;2023-12-22T12:28:00;3.6;60.3
67893;DHT22;54688;52.376;16.744;2023-12-22T12:31:04;3.6;59.5
67893;DHT22;54688;52.376;16.744;2023-12-22T12:34:07;3.6;60.1
67893;DHT22;54688;52.376;16.744;2023-12-22T12:37:12;3.6;58.5
67893;DHT22;54688;52.376;16.744;2023-12-22T12:40:14;3.7;58.2
67893;DHT22;54688;52.376;16.744;2023-12-22T12:43:20;3.6;58
67893;DHT22;54688;52.376;16.744;2023-12-22T12:46:22;3.7;57.7
67893;DHT22;54688;52.376;16.744;2023-12-22T12:49:24;3.7;58.4
67893;DHT22;54688;52.376;16.744;2023-12-22T12:52:26;3.7;56.5
67893;DHT22;54688;52.376;16.744;2023-12-22T12:55:29;3.7;56.7
67893;DHT22;54688;52.376;16.744;2023-12-22T12:58:32;3.6;56.4
67893;DHT22;54688;52.376;16.744;2023-12-22T13:01:37;3.7;56.6
67893;DHT22;54688;52.376;16.744;2023-12-22T13:04:39;3.7;56.4
67893;DHT22;54688;52.376;16.744;2023-12-22T13:07:41;3.7;56.4
67893;DHT22;54688;52.376;16.744;2023-12-22T13:10:43;3.7;56.1
67893;DHT22;54688;52.376;16.744;2023-12-22T13:13:45;3.7;55.6
67893;DHT22;54688;52.376;16.744;2023-12-22T13:16:48;3.7;55.3
67893;DHT22;54688;52.376;16.744;2023-12-22T13:19:50;3.7;55.2
67893;DHT22;54688;52.376;16.744;2023-12-22T13:22:53;3.7;55.3
67893;DHT22;54688;52.376;16.744;2023-12-22T13:25:55;3.7;55.5
67893;DHT22;54688;52.376;16.744;2023-12-22T13:28:57;3.8;54.8
67893;DHT22;54688;52.376;16.744;2023-12-22T13:31:59;3.8;54.4
67893;DHT22;54688;52.376;16.744;2023-12-22T13:35:01;3.8;53.8
67893;DHT22;54688;52.376;16.744;2023-12-22T13:38:05;3.8;53.9
67893;DHT22;54688;52.376;16.744;2023-12-22T13:41:08;3.8;53.1
67893;DHT22;54688;52.376;16.744;2023-12-22T13:44:09;3.9;52.5
67893;DHT22;54688;52.376;16.744;2023-12-22T13:47:13;3.9;52.6
67893;DHT22;54688;52.376;16.744;2023-12-22T13:50:16;3.9;52.6
67893;DHT22;54688;52.376;16.744;2023-12-22T13:53:19;3.9;52.3
67893;DHT22;54688;52.376;16.744;2023-12-22T13:56:21;3.9;53
67893;DHT22;54688;52.376;16.744;2023-12-22T13:59:30;3.9;52.8
67893;DHT22;54688;52.376;16.744;2023-12-22T14:02:32;4;53.2
67893;DHT22;54688;52.376;16.744;2023-12-22T14:05:34;4;52.1
67893;DHT22;54688;52.376;16.744;2023-12-22T14:08:36;3.9;53.3
67893;DHT22;54688;52.376;16.744;2023-12-22T14:11:38;4;52.9
67893;DHT22;54688;52.376;16.744;2023-12-22T14:14:40;4;53.6
67893;DHT22;54688;52.376;16.744;2023-12-22T14:17:42;4;53.4
67893;DHT22;54688;52.376;16.744;2023-12-22T14:20:45;3.9;52.6
67893;DHT22;54688;52.376;16.744;2023-12-22T14:23:47;3.9;53.4
67893;DHT22;54688;52.376;16.744;2023-12-22T14:26:53;3.8;52.2
67893;DHT22;54688;52.376;16.744;2023-12-22T14:29:56;3.7;51.7
67893;DHT22;54688;52.376;16.744;2023-12-22T14:32:58;3.7;51.3
67893;DHT22;54688;52.376;16.744;2023-12-22T14:36:00;3.6;51.6
67893;DHT22;54688;52.376;16.744;2023-12-22T14:39:02;3.6;52.3
67893;DHT22;54688;52.376;16.744;2023-12-22T14:42:05;3.6;52.5
67893;DHT22;54688;52.376;16.744;2023-12-22T14:45:08;3.5;52.3
67893;DHT22;54688;52.376;16.744;2023-12-22T14:51:09;3.4;52
67893;DHT22;54688;52.376;16.744;2023-12-22T14:54:11;3.4;52.8
67893;DHT22;54688;52.376;16.744;2023-12-22T14:57:14;3.3;53.2
67893;DHT22;54688;52.376;16.744;2023-12-22T15:00:16;3.3;54
67893;DHT22;54688;52.376;16.744;2023-12-22T15:03:20;3.3;54.4
67893;DHT22;54688;52.376;16.744;2023-12-22T15:06:23;3.3;54.7
67893;DHT22;54688;52.376;16.744;2023-12-22T15:09:26;3.2;55.1
67893;DHT22;54688;52.376;16.744;2023-12-22T15:12:28;3.2;56.1
67893;DHT22;54688;52.376;16.744;2023-12-22T15:15:30;3.3;55.8
67893;DHT22;54688;52.376;16.744;2023-12-22T15:18:32;3.2;55.5
67893;DHT22;54688;52.376;16.744;2023-12-22T15:21:34;3.2;53.8
67893;DHT22;54688;52.376;16.744;2023-12-22T15:24:38;3.2;53.5
67893;DHT22;54688;52.376;16.744;2023-12-22T15:27:41;3.2;52.8
67893;DHT22;54688;52.376;16.744;2023-12-22T15:30:43;3.2;52
67893;DHT22;54688;52.376;16.744;2023-12-22T15:33:45;3.2;52.9
67893;DHT22;54688;52.376;16.744;2023-12-22T15:36:47;3.2;51.7
67893;DHT22;54688;52.376;16.744;2023-12-22T15:39:49;3.2;51.2
67893;DHT22;54688;52.376;16.744;2023-12-22T15:42:52;3.3;51.3
67893;DHT22;54688;52.376;16.744;2023-12-22T15:45:54;3.3;51
67893;DHT22;54688;52.376;16.744;2023-12-22T15:48:57;3.2;50.6
67893;DHT22;54688;52.376;16.744;2023-12-22T15:51:59;3.3;52.1
67893;DHT22;54688;52.376;16.744;2023-12-22T15:55:01;3.3;51.8
67893;DHT22;54688;52.376;16.744;2023-12-22T16:01:04;3.3;52.1
67893;DHT22;54688;52.376;16.744;2023-12-22T16:04:06;3.3;51.4
67893;DHT22;54688;52.376;16.744;2023-12-22T16:07:08;3.2;51.2
67893;DHT22;54688;52.376;16.744;2023-12-22T16:10:10;3.3;52.1
67893;DHT22;54688;52.376;16.744;2023-12-22T16:13:13;3.3;51.4
67893;DHT22;54688;52.376;16.744;2023-12-22T16:16:16;3.3;51.5
67893;DHT22;54688;52.376;16.744;2023-12-22T16:19:19;3.2;52.1
67893;DHT22;54688;52.376;16.744;2023-12-22T16:22:22;3.2;51.5
67893;DHT22;54688;52.376;16.744;2023-12-22T16:25:24;3.2;50.9
67893;DHT22;54688;52.376;16.744;2023-12-22T16:28:26;3.1;50.1
67893;DHT22;54688;52.376;16.744;2023-12-22T16:31:28;3.1;50.2
67893;DHT22;54688;52.376;16.744;2023-12-22T16:34:30;3.1;50.2
67893;DHT22;54688;52.376;16.744;2023-12-22T16:37:32;3.1;50.4
67893;DHT22;54688;52.376;16.744;2023-12-22T16:40:34;3.1;48.5
67893;DHT22;54688;52.376;16.744;2023-12-22T16:43:38;3;48.9
67893;DHT22;54688;52.376;16.744;2023-12-22T16:46:42;3.1;48
67893;DHT22;54688;52.376;16.744;2023-12-22T16:49:46;3.1;48.8
67893;DHT22;54688;52.376;16.744;2023-12-22T16:52:48;3;50.5
67893;DHT22;54688;52.376;16.744;2023-12-22T16:55:50;2.9;51.9
67893;DHT22;54688;52.376;16.744;2023-12-22T16:58:52;2.9;53.1
67893;DHT22;54688;52.376;16.744;2023-12-22T17:01:54;2.9;52.3
67893;DHT22;54688;52.376;16.744;2023-12-22T17:04:56;2.9;52.3
67893;DHT22;54688;52.376;16.744;2023-12-22T17:07:58;2.9;52.6
67893;DHT22;54688;52.376;16.744;2023-12-22T17:11:00;2.9;52.5
67893;DHT22;54688;52.376;16.744;2023-12-22T17:14:02;2.9;53.4
67893;DHT22;54688;52.376;16.744;2023-12-22T17:17:05;2.9;52.3
67893;DHT22;54688;52.376;16.744;2023-12-22T17:20:07;2.8;52.4
67893;DHT22;54688;52.376;16.744;2023-12-22T17:23:10;2.8;52
67893;DHT22;54688;52.376;16.744;2023-12-22T17:26:12;2.8;52.2
67893;DHT22;54688;52.376;16.744;2023-12-22T17:29:14;2.8;51.8
67893;DHT22;54688;52.376;16.744;2023-12-22T17:32:17;2.8;51.5
67893;DHT22;54688;52.376;16.744;2023-12-22T17:35:19;2.8;52.6
67893;DHT22;54688;52.376;16.744;2023-12-22T17:38:21;2.7;51.9
67893;DHT22;54688;52.376;16.744;2023-12-22T17:41:23;2.8;53.8
67893;DHT22;54688;52.376;16.744;2023-12-22T17:44:25;2.7;53.7
67893;DHT22;54688;52.376;16.744;2023-12-22T17:47:28;2.8;54
67893;DHT22;54688;52.376;16.744;2023-12-22T17:50:30;2.8;54.1
67893;DHT22;54688;52.376;16.744;2023-12-22T17:53:33;2.8;53.1
67893;DHT22;54688;52.376;16.744;2023-12-22T17:56:36;2.8;53.7
67893;DHT22;54688;52.376;16.744;2023-12-22T17:59:38;2.8;53.2
67893;DHT22;54688;52.376;16.744;2023-12-22T18:02:40;2.8;53.7
67893;DHT22;54688;52.376;16.744;2023-12-22T18:05:42;2.8;53.1
67893;DHT22;54688;52.376;16.744;2023-12-22T18:08:44;2.9;53.1
67893;DHT22;54688;52.376;16.744;2023-12-22T18:11:46;2.8;53.6
67893;DHT22;54688;52.376;16.744;2023-12-22T18:14:48;2.8;53.1
67893;DHT22;54688;52.376;16.744;2023-12-22T18:17:50;2.8;53.9
67893;DHT22;54688;52.376;16.744;2023-12-22T18:20:53;2.8;53.1
67893;DHT22;54688;52.376;16.744;2023-12-22T18:23:55;2.8;53.4
67893;DHT22;54688;52.376;16.744;2023-12-22T18:26:57;2.8;53.6
67893;DHT22;54688;52.376;16.744;2023-12-22T18:29:59;2.8;53.7
67893;DHT22;54688;52.376;16.744;2023-12-22T18:33:01;2.7;54.4
67893;DHT22;54688;52.376;16.744;2023-12-22T18:36:03;2.7;53.8
67893;DHT22;54688;52.376;16.744;2023-12-22T18:39:06;2.7;55
67893;DHT22;54688;52.376;16.744;2023-12-22T18:42:07;2.7;55.1
67893;DHT22;54688;52.376;16.744;2023-12-22T18:45:09;2.7;55.6
67893;DHT22;54688;52.376;16.744;2023-12-22T18:48:11;2.6;55.8
67893;DHT22;54688;52.376;16.744;2023-12-22T18:51:13;2.7;56.3
67893;DHT22;54688;52.376;16.744;2023-12-22T18:54:16;2.6;56.6
67893;DHT22;54688;52.376;16.744;2023-12-22T18:57:19;2.6;56.6
67893;DHT22;54688;52.376;16.744;2023-12-22T19:00:21;2.6;57.4
67893;DHT22;54688;52.376;16.744;2023-12-22T19:03:23;2.5;56.3
67893;DHT22;54688;52.376;16.744;2023-12-22T19:06:26;2.5;57.2
67893;DHT22;54688;52.376;16.744;2023-12-22T19:09:28;2.5;57.3
67893;DHT22;54688;52.376;16.744;2023-12-22T19:12:30;2.5;56.5
67893;DHT22;54688;52.376;16.744;2023-12-22T19:15:31;2.5;56.8
67893;DHT22;54688;52.376;16.744;2023-12-22T19:18:33;2.4;56.4
67893;DHT22;54688;52.376;16.744;2023-12-22T19:21:36;2.4;56.6
67893;DHT22;54688;52.376;16.744;2023-12-22T19:24:38;2.4;56.6
67893;DHT22;54688;52.376;16.744;2023-12-22T19:27:40;2.4;56.6
67893;DHT22;54688;52.376;16.744;2023-12-22T19:30:44;2.3;56.1
67893;DHT22;54688;52.376;16.744;2023-12-22T19:33:46;2.3;56.5
67893;DHT22;54688;52.376;16.744;2023-12-22T19:36:48;2.3;56.5
67893;DHT22;54688;52.376;16.744;2023-12-22T19:39:50;2.3;57.3
67893;DHT22;54688;52.376;16.744;2023-12-22T19:42:52;2.2;56.7
67893;DHT22;54688;52.376;16.744;2023-12-22T19:45:54;2.2;56.8
67893;DHT22;54688;52.376;16.744;2023-12-22T19:48:57;2.1;56.8
67893;DHT22;54688;52.376;16.744;2023-12-22T19:51:59;2;57
67893;DHT22;54688;52.376;16.744;2023-12-22T19:55:01;1.9;57.1
67893;DHT22;54688;52.376;16.744;2023-12-22T19:58:03;1.9;57.6
67893;DHT22;54688;52.376;16.744;2023-12-22T20:01:06;1.8;57.5
67893;DHT22;54688;52.376;16.744;2023-12-22T20:04:08;1.8;56.8
67893;DHT22;54688;52.376;16.744;2023-12-22T20:07:10;1.8;57.6
67893;DHT22;54688;52.376;16.744;2023-12-22T20:10:13;1.8;58.4
67893;DHT22;54688;52.376;16.744;2023-12-22T20:13:16;1.8;57.7
67893;DHT22;54688;52.376;16.744;2023-12-22T20:16:18;1.9;57.7
67893;DHT22;54688;52.376;16.744;2023-12-22T20:19:20;1.8;58.3